sensor_id;sensor_type;location;lat;lon;timestamp;temperature;humidity
75091;DHT22;63674;48.048;8.306;2024-03-17T00:01:20;6.60;99.90
75091;DHT22;63674;48.048;8.306;2024-03-17T00:03:47;5.90;99.90
75091;DHT22;63674;48.048;8.306;2024-03-17T00:06:14;5.80;99.90
75091;DHT22;63674;48.048;8.306;2024-03-17T00:08:44;6.00;99.90
75091;DHT22;63674;48.048;8.306;2024-03-17T00:11:11;5.50;99.90
75091;DHT22;63674;48.048;8.306;2024-03-17T00:13:38;6.40;99.90
75091;DHT22;63674;48.048;8.306;2024-03-17T00:16:05;5.70;99.90
75091;DHT22;63674;48.048;8.306;2024-03-17T00:18:33;5.20;99.90
75091;DHT22;63674;48.048;8.306;2024-03-17T00:21:02;5.80;99.90
75091;DHT22;63674;48.048;8.306;2024-03-17T00:23:28;5.60;99.90
75091;DHT22;63674;48.048;8.306;2024-03-17T00:25:57;6.60;99.90
75091;DHT22;63674;48.048;8.306;2024-03-17T00:28:25;7.00;99.90
75091;DHT22;63674;48.048;8.306;2024-03-17T00:30:51;5.20;99.90
75091;DHT22;63674;48.048;8.306;2024-03-17T00:33:19;5.90;99.90
75091;DHT22;63674;48.048;8.306;2024-03-17T00:35:45;5.80;99.90
75091;DHT22;63674;48.048;8.306;2024-03-17T00:38:13;5.90;99.90
75091;DHT22;63674;48.048;8.306;2024-03-17T00:43:09;5.70;99.90
75091;DHT22;63674;48.048;8.306;2024-03-17T00:45:37;3.70;99.90
75091;DHT22;63674;48.048;8.306;2024-03-17T00:48:05;6.90;99.90
75091;DHT22;63674;48.048;8.306;2024-03-17T00:50:32;5.90;99.90
75091;DHT22;63674;48.048;8.306;2024-03-17T00:53:00;5.50;99.90
75091;DHT22;63674;48.048;8.306;2024-03-17T00:55:29;5.80;99.90
75091;DHT22;63674;48.048;8.306;2024-03-17T00:57:56;4.60;99.90
75091;DHT22;63674;48.048;8.306;2024-03-17T01:00:24;6.10;99.90
75091;DHT22;63674;48.048;8.306;2024-03-17T01:05:18;5.60;99.90
75091;DHT22;63674;48.048;8.306;2024-03-17T01:10:14;5.70;99.90
75091;DHT22;63674;48.048;8.306;2024-03-17T01:12:41;6.10;99.90
75091;DHT22;63674;48.048;8.306;2024-03-17T01:15:08;5.80;99.90
75091;DHT22;63674;48.048;8.306;2024-03-17T01:17:38;5.80;99.90
75091;DHT22;63674;48.048;8.306;2024-03-17T01:20:06;5.60;99.90
75091;DHT22;63674;48.048;8.306;2024-03-17T01:22:35;5.80;99.90
75091;DHT22;63674;48.048;8.306;2024-03-17T01:25:01;4.30;99.90
75091;DHT22;63674;48.048;8.306;2024-03-17T01:27:29;4.40;99.90
75091;DHT22;63674;48.048;8.306;2024-03-17T01:29:55;6.30;99.90
75091;DHT22;63674;48.048;8.306;2024-03-17T01:34:51;4.40;99.90
75091;DHT22;63674;48.048;8.306;2024-03-17T01:37:19;6.40;99.90
75091;DHT22;63674;48.048;8.306;2024-03-17T01:39:45;6.20;99.90
75091;DHT22;63674;48.048;8.306;2024-03-17T01:42:15;6.00;99.90
75091;DHT22;63674;48.048;8.306;2024-03-17T01:44:41;5.80;99.90
75091;DHT22;63674;48.048;8.306;2024-03-17T01:47:09;5.70;99.90
75091;DHT22;63674;48.048;8.306;2024-03-17T01:49:36;6.10;99.90
75091;DHT22;63674;48.048;8.306;2024-03-17T01:52:05;5.90;99.90
75091;DHT22;63674;48.048;8.306;2024-03-17T01:54:32;6.00;99.90
75091;DHT22;63674;48.048;8.306;2024-03-17T01:57:00;4.50;99.90
75091;DHT22;63674;48.048;8.306;2024-03-17T02:01:54;5.90;99.90
75091;DHT22;63674;48.048;8.306;2024-03-17T02:04:20;5.60;99.90
75091;DHT22;63674;48.048;8.306;2024-03-17T02:06:48;5.90;99.90
75091;DHT22;63674;48.048;8.306;2024-03-17T02:09:16;5.80;99.90
75091;DHT22;63674;48.048;8.306;2024-03-17T02:14:50;5.70;99.90
75091;DHT22;63674;48.048;8.306;2024-03-17T02:17:35;5.70;99.90
75091;DHT22;63674;48.048;8.306;2024-03-17T02:20:21;6.10;99.90
75091;DHT22;63674;48.048;8.306;2024-03-17T02:23:10;6.10;99.90
75091;DHT22;63674;48.048;8.306;2024-03-17T02:28:43;6.00;99.90
75091;DHT22;63674;48.048;8.306;2024-03-17T02:31:30;6.30;99.90
75091;DHT22;63674;48.048;8.306;2024-03-17T02:34:15;5.60;99.90
75091;DHT22;63674;48.048;8.306;2024-03-17T02:37:02;5.60;99.90
75091;DHT22;63674;48.048;8.306;2024-03-17T02:39:49;5.90;99.90
75091;DHT22;63674;48.048;8.306;2024-03-17T02:45:22;6.10;99.90
75091;DHT22;63674;48.048;8.306;2024-03-17T02:50:54;5.70;99.90
75091;DHT22;63674;48.048;8.306;2024-03-17T02:53:41;5.90;99.90
75091;DHT22;63674;48.048;8.306;2024-03-17T02:56:29;6.10;99.90
75091;DHT22;63674;48.048;8.306;2024-03-17T02:59:15;3.50;99.90
75091;DHT22;63674;48.048;8.306;2024-03-17T03:02:01;5.30;99.90
75091;DHT22;63674;48.048;8.306;2024-03-17T03:07:35;3.60;99.90
75091;DHT22;63674;48.048;8.306;2024-03-17T03:10:21;5.60;99.90
75091;DHT22;63674;48.048;8.306;2024-03-17T03:13:09;6.10;99.90
75091;DHT22;63674;48.048;8.306;2024-03-17T03:15:55;5.50;99.90
75091;DHT22;63674;48.048;8.306;2024-03-17T03:18:42;6.60;99.90
75091;DHT22;63674;48.048;8.306;2024-03-17T03:21:29;4.70;99.90
75091;DHT22;63674;48.048;8.306;2024-03-17T03:24:15;5.80;99.90
75091;DHT22;63674;48.048;8.306;2024-03-17T03:27:02;6.10;99.90
75091;DHT22;63674;48.048;8.306;2024-03-17T03:29:50;5.80;99.90
75091;DHT22;63674;48.048;8.306;2024-03-17T03:32:36;5.60;99.90
75091;DHT22;63674;48.048;8.306;2024-03-17T03:38:11;3.80;99.90
75091;DHT22;63674;48.048;8.306;2024-03-17T03:40:58;5.60;99.90
75091;DHT22;63674;48.048;8.306;2024-03-17T03:43:44;5.80;99.90
75091;DHT22;63674;48.048;8.306;2024-03-17T03:46:33;4.70;99.90
75091;DHT22;63674;48.048;8.306;2024-03-17T03:49:19;6.10;99.90
75091;DHT22;63674;48.048;8.306;2024-03-17T03:57:38;6.10;99.90
75091;DHT22;63674;48.048;8.306;2024-03-17T04:00:24;6.20;99.90
75091;DHT22;63674;48.048;8.306;2024-03-17T04:03:15;5.80;99.90
75091;DHT22;63674;48.048;8.306;2024-03-17T04:06:03;6.80;99.90
75091;DHT22;63674;48.048;8.306;2024-03-17T04:14:22;5.60;99.90
75091;DHT22;63674;48.048;8.306;2024-03-17T04:17:08;6.00;99.90
75091;DHT22;63674;48.048;8.306;2024-03-17T04:19:57;5.60;99.90
75091;DHT22;63674;48.048;8.306;2024-03-17T04:22:43;5.70;99.90
75091;DHT22;63674;48.048;8.306;2024-03-17T04:25:29;6.40;99.90
75091;DHT22;63674;48.048;8.306;2024-03-17T04:28:16;5.70;99.90
75091;DHT22;63674;48.048;8.306;2024-03-17T04:31:03;3.50;99.90
75091;DHT22;63674;48.048;8.306;2024-03-17T04:33:50;3.60;99.90
75091;DHT22;63674;48.048;8.306;2024-03-17T04:36:18;5.40;99.90
75091;DHT22;63674;48.048;8.306;2024-03-17T04:41:15;5.50;99.90
75091;DHT22;63674;48.048;8.306;2024-03-17T04:43:43;5.50;99.90
75091;DHT22;63674;48.048;8.306;2024-03-17T04:48:39;5.20;99.90
75091;DHT22;63674;48.048;8.306;2024-03-17T04:51:07;5.10;99.90
75091;DHT22;63674;48.048;8.306;2024-03-17T04:53:36;4.70;99.90
75091;DHT22;63674;48.048;8.306;2024-03-17T04:56:05;4.80;99.90
75091;DHT22;63674;48.048;8.306;2024-03-17T05:01:05;5.20;99.90
75091;DHT22;63674;48.048;8.306;2024-03-17T05:03:33;4.70;99.90
75091;DHT22;63674;48.048;8.306;2024-03-17T05:06:01;4.70;99.90
75091;DHT22;63674;48.048;8.306;2024-03-17T05:08:29;4.80;99.90
75091;DHT22;63674;48.048;8.306;2024-03-17T05:10:59;4.70;99.90
75091;DHT22;63674;48.048;8.306;2024-03-17T05:18:23;5.50;99.90
75091;DHT22;63674;48.048;8.306;2024-03-17T05:20:58;3.10;99.90
75091;DHT22;63674;48.048;8.306;2024-03-17T05:23:27;5.20;99.90
75091;DHT22;63674;48.048;8.306;2024-03-17T05:25:55;4.90;99.90
75091;DHT22;63674;48.048;8.306;2024-03-17T05:28:26;5.30;99.90
75091;DHT22;63674;48.048;8.306;2024-03-17T05:30:55;4.90;99.90
75091;DHT22;63674;48.048;8.306;2024-03-17T05:33:24;5.50;99.90
75091;DHT22;63674;48.048;8.306;2024-03-17T05:35:54;5.30;99.90
75091;DHT22;63674;48.048;8.306;2024-03-17T05:38:25;6.30;99.90
75091;DHT22;63674;48.048;8.306;2024-03-17T05:40:54;5.30;99.90
75091;DHT22;63674;48.048;8.306;2024-03-17T05:43:23;5.10;99.90
75091;DHT22;63674;48.048;8.306;2024-03-17T05:45:51;4.40;99.90
75091;DHT22;63674;48.048;8.306;2024-03-17T05:48:19;4.80;99.90
75091;DHT22;63674;48.048;8.306;2024-03-17T05:53:15;5.00;99.90
75091;DHT22;63674;48.048;8.306;2024-03-17T05:55:44;4.60;99.90
75091;DHT22;63674;48.048;8.306;2024-03-17T05:58:11;5.30;99.90
75091;DHT22;63674;48.048;8.306;2024-03-17T06:00:40;5.00;99.90
75091;DHT22;63674;48.048;8.306;2024-03-17T06:03:09;6.40;99.90
75091;DHT22;63674;48.048;8.306;2024-03-17T06:05:38;5.50;99.90
75091;DHT22;63674;48.048;8.306;2024-03-17T06:08:07;5.60;99.90
75091;DHT22;63674;48.048;8.306;2024-03-17T06:10:38;5.60;99.90
75091;DHT22;63674;48.048;8.306;2024-03-17T06:13:09;6.40;99.90
75091;DHT22;63674;48.048;8.306;2024-03-17T06:15:40;5.10;99.90
75091;DHT22;63674;48.048;8.306;2024-03-17T06:18:08;5.30;99.90
75091;DHT22;63674;48.048;8.306;2024-03-17T06:20:40;3.10;99.90
75091;DHT22;63674;48.048;8.306;2024-03-17T06:23:09;5.70;99.90
75091;DHT22;63674;48.048;8.306;2024-03-17T06:25:40;5.60;99.90
75091;DHT22;63674;48.048;8.306;2024-03-17T06:28:08;3.60;99.90
75091;DHT22;63674;48.048;8.306;2024-03-17T06:30:41;5.60;99.90
75091;DHT22;63674;48.048;8.306;2024-03-17T06:33:11;6.70;99.90
75091;DHT22;63674;48.048;8.306;2024-03-17T06:35:39;5.60;99.90
75091;DHT22;63674;48.048;8.306;2024-03-17T06:38:07;5.50;99.90
75091;DHT22;63674;48.048;8.306;2024-03-17T06:43:04;5.50;99.90
75091;DHT22;63674;48.048;8.306;2024-03-17T06:45:32;5.90;99.90
75091;DHT22;63674;48.048;8.306;2024-03-17T06:48:01;5.60;99.90
75091;DHT22;63674;48.048;8.306;2024-03-17T06:50:28;6.00;99.90
75091;DHT22;63674;48.048;8.306;2024-03-17T06:52:56;5.80;99.90
75091;DHT22;63674;48.048;8.306;2024-03-17T06:57:51;5.40;99.90
75091;DHT22;63674;48.048;8.306;2024-03-17T07:00:19;4.30;99.90
75091;DHT22;63674;48.048;8.306;2024-03-17T07:02:51;4.50;99.90
75091;DHT22;63674;48.048;8.306;2024-03-17T07:05:20;5.30;99.90
75091;DHT22;63674;48.048;8.306;2024-03-17T07:07:47;5.30;99.90
75091;DHT22;63674;48.048;8.306;2024-03-17T07:10:15;5.50;99.90
75091;DHT22;63674;48.048;8.306;2024-03-17T07:12:42;3.70;99.90
75091;DHT22;63674;48.048;8.306;2024-03-17T07:20:06;5.70;99.90
75091;DHT22;63674;48.048;8.306;2024-03-17T07:22:36;5.70;99.90
75091;DHT22;63674;48.048;8.306;2024-03-17T07:25:04;6.40;99.90
75091;DHT22;63674;48.048;8.306;2024-03-17T07:30:00;5.10;99.90
75091;DHT22;63674;48.048;8.306;2024-03-17T07:32:27;5.70;99.90
75091;DHT22;63674;48.048;8.306;2024-03-17T07:34:55;6.10;99.90
75091;DHT22;63674;48.048;8.306;2024-03-17T07:39:51;5.90;99.90
75091;DHT22;63674;48.048;8.306;2024-03-17T07:42:19;7.10;99.90
75091;DHT22;63674;48.048;8.306;2024-03-17T07:44:46;4.00;99.90
75091;DHT22;63674;48.048;8.306;2024-03-17T07:47:14;6.30;99.90
75091;DHT22;63674;48.048;8.306;2024-03-17T07:49:41;6.30;99.90
75091;DHT22;63674;48.048;8.306;2024-03-17T07:54:41;6.50;99.90
75091;DHT22;63674;48.048;8.306;2024-03-17T07:57:10;6.20;99.90
75091;DHT22;63674;48.048;8.306;2024-03-17T07:59:37;5.90;99.90
75091;DHT22;63674;48.048;8.306;2024-03-17T08:02:05;6.30;99.90
75091;DHT22;63674;48.048;8.306;2024-03-17T08:04:34;6.70;99.90
75091;DHT22;63674;48.048;8.306;2024-03-17T08:07:03;6.20;99.90
75091;DHT22;63674;48.048;8.306;2024-03-17T08:09:31;6.80;99.90
75091;DHT22;63674;48.048;8.306;2024-03-17T08:11:58;6.50;99.90
75091;DHT22;63674;48.048;8.306;2024-03-17T08:14:27;5.80;99.90
75091;DHT22;63674;48.048;8.306;2024-03-17T08:16:55;7.70;99.90
75091;DHT22;63674;48.048;8.306;2024-03-17T08:19:22;6.60;99.90
75091;DHT22;63674;48.048;8.306;2024-03-17T08:26:45;5.80;99.90
75091;DHT22;63674;48.048;8.306;2024-03-17T08:29:12;6.90;99.90
75091;DHT22;63674;48.048;8.306;2024-03-17T08:31:41;7.00;99.90
75091;DHT22;63674;48.048;8.306;2024-03-17T08:36:39;7.60;99.90
75091;DHT22;63674;48.048;8.306;2024-03-17T08:39:06;7.70;99.90
75091;DHT22;63674;48.048;8.306;2024-03-17T08:44:03;7.40;99.90
75091;DHT22;63674;48.048;8.306;2024-03-17T08:46:32;8.70;99.90
75091;DHT22;63674;48.048;8.306;2024-03-17T08:49:00;7.80;99.90
75091;DHT22;63674;48.048;8.306;2024-03-17T08:51:28;8.00;99.90
75091;DHT22;63674;48.048;8.306;2024-03-17T08:53:56;8.60;99.90
75091;DHT22;63674;48.048;8.306;2024-03-17T08:56:23;8.10;99.90
75091;DHT22;63674;48.048;8.306;2024-03-17T08:58:51;8.30;99.90
75091;DHT22;63674;48.048;8.306;2024-03-17T09:01:18;7.90;99.90
75091;DHT22;63674;48.048;8.306;2024-03-17T09:03:46;7.90;99.90
75091;DHT22;63674;48.048;8.306;2024-03-17T09:06:17;8.50;99.90
75091;DHT22;63674;48.048;8.306;2024-03-17T09:11:14;8.80;99.90
75091;DHT22;63674;48.048;8.306;2024-03-17T09:16:10;9.00;99.90
75091;DHT22;63674;48.048;8.306;2024-03-17T09:18:39;8.80;99.90
75091;DHT22;63674;48.048;8.306;2024-03-17T09:21:08;9.20;99.90
75091;DHT22;63674;48.048;8.306;2024-03-17T09:23:37;9.00;99.90
75091;DHT22;63674;48.048;8.306;2024-03-17T09:26:06;9.30;99.90
75091;DHT22;63674;48.048;8.306;2024-03-17T09:28:36;8.10;99.90
75091;DHT22;63674;48.048;8.306;2024-03-17T09:31:04;9.40;99.90
75091;DHT22;63674;48.048;8.306;2024-03-17T09:33:34;9.30;99.90
75091;DHT22;63674;48.048;8.306;2024-03-17T09:36:03;9.60;99.90
75091;DHT22;63674;48.048;8.306;2024-03-17T09:38:32;9.70;99.90
75091;DHT22;63674;48.048;8.306;2024-03-17T09:41:02;9.90;99.90
75091;DHT22;63674;48.048;8.306;2024-03-17T09:43:32;9.60;99.90
75091;DHT22;63674;48.048;8.306;2024-03-17T09:46:02;9.60;99.90
75091;DHT22;63674;48.048;8.306;2024-03-17T09:48:30;9.50;99.90
75091;DHT22;63674;48.048;8.306;2024-03-17T09:51:00;9.60;99.90
75091;DHT22;63674;48.048;8.306;2024-03-17T09:53:29;9.60;99.90
75091;DHT22;63674;48.048;8.306;2024-03-17T09:55:59;9.70;99.90
75091;DHT22;63674;48.048;8.306;2024-03-17T09:58:30;8.30;99.90
75091;DHT22;63674;48.048;8.306;2024-03-17T10:00:58;10.80;99.90
75091;DHT22;63674;48.048;8.306;2024-03-17T10:03:40;10.20;99.90
75091;DHT22;63674;48.048;8.306;2024-03-17T10:06:09;9.90;99.90
75091;DHT22;63674;48.048;8.306;2024-03-17T10:08:46;10.00;99.90
75091;DHT22;63674;48.048;8.306;2024-03-17T10:11:18;10.10;99.90
75091;DHT22;63674;48.048;8.306;2024-03-17T10:13:58;10.40;99.90
75091;DHT22;63674;48.048;8.306;2024-03-17T10:16:27;10.40;99.90
75091;DHT22;63674;48.048;8.306;2024-03-17T10:19:07;10.50;99.90
75091;DHT22;63674;48.048;8.306;2024-03-17T10:21:36;10.50;99.90
75091;DHT22;63674;48.048;8.306;2024-03-17T10:24:06;10.40;99.90
75091;DHT22;63674;48.048;8.306;2024-03-17T10:26:41;10.30;99.90
75091;DHT22;63674;48.048;8.306;2024-03-17T10:29:23;10.30;99.90
75091;DHT22;63674;48.048;8.306;2024-03-17T10:31:52;10.70;99.90
75091;DHT22;63674;48.048;8.306;2024-03-17T10:34:22;10.50;99.90
75091;DHT22;63674;48.048;8.306;2024-03-17T10:36:51;11.20;99.90
75091;DHT22;63674;48.048;8.306;2024-03-17T10:39:24;10.50;99.90
75091;DHT22;63674;48.048;8.306;2024-03-17T10:42:00;9.40;99.90
75091;DHT22;63674;48.048;8.306;2024-03-17T10:44:28;9.20;99.90
75091;DHT22;63674;48.048;8.306;2024-03-17T10:46:57;10.70;99.90
75091;DHT22;63674;48.048;8.306;2024-03-17T10:49:29;10.50;99.90
75091;DHT22;63674;48.048;8.306;2024-03-17T10:51:59;10.60;99.90
75091;DHT22;63674;48.048;8.306;2024-03-17T10:54:28;10.90;99.90
75091;DHT22;63674;48.048;8.306;2024-03-17T10:56:57;10.80;99.90
75091;DHT22;63674;48.048;8.306;2024-03-17T10:59:38;10.60;99.90
75091;DHT22;63674;48.048;8.306;2024-03-17T11:02:20;10.50;99.90
75091;DHT22;63674;48.048;8.306;2024-03-17T11:04:51;10.40;99.90
75091;DHT22;63674;48.048;8.306;2024-03-17T11:07:22;10.60;99.90
75091;DHT22;63674;48.048;8.306;2024-03-17T11:09:51;11.00;99.90
75091;DHT22;63674;48.048;8.306;2024-03-17T11:12:42;10.60;99.90
75091;DHT22;63674;48.048;8.306;2024-03-17T11:15:39;10.40;99.90
75091;DHT22;63674;48.048;8.306;2024-03-17T11:18:35;10.90;99.90
75091;DHT22;63674;48.048;8.306;2024-03-17T11:21:12;10.80;99.90
75091;DHT22;63674;48.048;8.306;2024-03-17T11:23:59;10.70;99.90
75091;DHT22;63674;48.048;8.306;2024-03-17T11:26:29;10.20;99.90
75091;DHT22;63674;48.048;8.306;2024-03-17T11:29:00;11.10;99.90
75091;DHT22;63674;48.048;8.306;2024-03-17T11:31:43;9.50;99.90
75091;DHT22;63674;48.048;8.306;2024-03-17T11:34:30;10.90;99.90
75091;DHT22;63674;48.048;8.306;2024-03-17T11:37:03;11.00;99.90
75091;DHT22;63674;48.048;8.306;2024-03-17T11:39:54;10.90;99.90
75091;DHT22;63674;48.048;8.306;2024-03-17T11:42:26;10.80;99.90
75091;DHT22;63674;48.048;8.306;2024-03-17T11:45:03;11.30;99.90
75091;DHT22;63674;48.048;8.306;2024-03-17T11:47:37;11.30;99.90
75091;DHT22;63674;48.048;8.306;2024-03-17T11:50:07;11.00;99.90
75091;DHT22;63674;48.048;8.306;2024-03-17T11:52:38;10.90;99.90
75091;DHT22;63674;48.048;8.306;2024-03-17T11:55:15;11.00;99.90
75091;DHT22;63674;48.048;8.306;2024-03-17T11:57:44;11.00;99.90
75091;DHT22;63674;48.048;8.306;2024-03-17T12:00:24;11.80;99.90
75091;DHT22;63674;48.048;8.306;2024-03-17T12:02:52;11.30;99.90
75091;DHT22;63674;48.048;8.306;2024-03-17T12:05:19;11.00;99.90
75091;DHT22;63674;48.048;8.306;2024-03-17T12:07:47;11.00;99.90
75091;DHT22;63674;48.048;8.306;2024-03-17T12:10:16;10.10;99.90
75091;DHT22;63674;48.048;8.306;2024-03-17T12:12:47;11.20;99.90
75091;DHT22;63674;48.048;8.306;2024-03-17T12:15:17;11.20;99.90
75091;DHT22;63674;48.048;8.306;2024-03-17T12:17:46;11.60;99.90
75091;DHT22;63674;48.048;8.306;2024-03-17T12:20:20;11.40;99.90
75091;DHT22;63674;48.048;8.306;2024-03-17T12:22:47;10.40;99.90
75091;DHT22;63674;48.048;8.306;2024-03-17T12:25:18;11.50;99.90
75091;DHT22;63674;48.048;8.306;2024-03-17T12:27:46;11.50;99.90
75091;DHT22;63674;48.048;8.306;2024-03-17T12:30:14;11.90;99.90
75091;DHT22;63674;48.048;8.306;2024-03-17T12:35:15;11.80;99.90
75091;DHT22;63674;48.048;8.306;2024-03-17T12:37:44;11.90;99.90
75091;DHT22;63674;48.048;8.306;2024-03-17T12:40:19;11.70;99.90
75091;DHT22;63674;48.048;8.306;2024-03-17T12:42:50;12.00;99.90
75091;DHT22;63674;48.048;8.306;2024-03-17T12:45:22;10.60;99.90
75091;DHT22;63674;48.048;8.306;2024-03-17T12:47:49;11.70;99.90
75091;DHT22;63674;48.048;8.306;2024-03-17T12:50:19;10.80;99.90
75091;DHT22;63674;48.048;8.306;2024-03-17T12:52:53;11.90;99.90
75091;DHT22;63674;48.048;8.306;2024-03-17T12:55:22;10.70;99.90
75091;DHT22;63674;48.048;8.306;2024-03-17T12:58:08;11.40;99.90
75091;DHT22;63674;48.048;8.306;2024-03-17T13:00:58;11.30;99.90
75091;DHT22;63674;48.048;8.306;2024-03-17T13:03:29;11.50;99.90
75091;DHT22;63674;48.048;8.306;2024-03-17T13:06:01;11.30;99.90
75091;DHT22;63674;48.048;8.306;2024-03-17T13:08:32;11.60;99.90
75091;DHT22;63674;48.048;8.306;2024-03-17T13:10:59;11.00;99.90
75091;DHT22;63674;48.048;8.306;2024-03-17T13:13:29;11.00;99.90
75091;DHT22;63674;48.048;8.306;2024-03-17T13:15:57;11.10;99.90
75091;DHT22;63674;48.048;8.306;2024-03-17T13:20:53;10.90;99.90
75091;DHT22;63674;48.048;8.306;2024-03-17T13:23:25;10.80;99.90
75091;DHT22;63674;48.048;8.306;2024-03-17T13:25:51;10.60;99.90
75091;DHT22;63674;48.048;8.306;2024-03-17T13:28:19;10.80;99.90
75091;DHT22;63674;48.048;8.306;2024-03-17T13:33:14;10.60;99.90
75091;DHT22;63674;48.048;8.306;2024-03-17T13:35:41;10.70;99.90
75091;DHT22;63674;48.048;8.306;2024-03-17T13:38:10;9.90;99.90
75091;DHT22;63674;48.048;8.306;2024-03-17T13:40:40;10.30;99.90
75091;DHT22;63674;48.048;8.306;2024-03-17T13:43:09;10.20;99.90
75091;DHT22;63674;48.048;8.306;2024-03-17T13:45:38;10.10;99.90
75091;DHT22;63674;48.048;8.306;2024-03-17T13:48:07;9.10;99.90
75091;DHT22;63674;48.048;8.306;2024-03-17T13:50:37;9.80;99.90
75091;DHT22;63674;48.048;8.306;2024-03-17T13:53:04;9.40;99.90
75091;DHT22;63674;48.048;8.306;2024-03-17T13:55:32;9.70;99.90
75091;DHT22;63674;48.048;8.306;2024-03-17T13:58:02;8.80;99.90
75091;DHT22;63674;48.048;8.306;2024-03-17T14:00:31;9.80;99.90
75091;DHT22;63674;48.048;8.306;2024-03-17T14:03:02;10.30;99.90
75091;DHT22;63674;48.048;8.306;2024-03-17T14:05:30;10.40;99.90
75091;DHT22;63674;48.048;8.306;2024-03-17T14:08:00;9.00;99.90
75091;DHT22;63674;48.048;8.306;2024-03-17T14:12:56;9.00;99.90
75091;DHT22;63674;48.048;8.306;2024-03-17T14:15:25;10.80;99.90
75091;DHT22;63674;48.048;8.306;2024-03-17T14:17:52;10.90;99.90
75091;DHT22;63674;48.048;8.306;2024-03-17T14:20:20;10.70;99.90
75091;DHT22;63674;48.048;8.306;2024-03-17T14:22:48;10.60;99.90
75091;DHT22;63674;48.048;8.306;2024-03-17T14:25:19;10.10;99.90
75091;DHT22;63674;48.048;8.306;2024-03-17T14:27:47;10.60;99.90
75091;DHT22;63674;48.048;8.306;2024-03-17T14:30:17;10.70;99.90
75091;DHT22;63674;48.048;8.306;2024-03-17T14:32:46;10.90;99.90
75091;DHT22;63674;48.048;8.306;2024-03-17T14:35:15;10.70;99.90
75091;DHT22;63674;48.048;8.306;2024-03-17T14:37:44;11.00;99.90
75091;DHT22;63674;48.048;8.306;2024-03-17T14:40:14;10.60;99.90
75091;DHT22;63674;48.048;8.306;2024-03-17T14:42:47;10.50;99.90
75091;DHT22;63674;48.048;8.306;2024-03-17T14:45:15;9.40;99.90
75091;DHT22;63674;48.048;8.306;2024-03-17T14:47:43;10.90;99.90
75091;DHT22;63674;48.048;8.306;2024-03-17T14:50:12;11.00;99.90
75091;DHT22;63674;48.048;8.306;2024-03-17T14:52:42;10.70;99.90
75091;DHT22;63674;48.048;8.306;2024-03-17T14:55:10;10.00;99.90
75091;DHT22;63674;48.048;8.306;2024-03-17T14:57:38;11.10;99.90
75091;DHT22;63674;48.048;8.306;2024-03-17T15:00:08;10.70;99.90
75091;DHT22;63674;48.048;8.306;2024-03-17T15:02:42;10.70;99.90
75091;DHT22;63674;48.048;8.306;2024-03-17T15:05:11;10.30;99.90
75091;DHT22;63674;48.048;8.306;2024-03-17T15:07:40;10.10;99.90
75091;DHT22;63674;48.048;8.306;2024-03-17T15:10:08;11.20;99.90
75091;DHT22;63674;48.048;8.306;2024-03-17T15:12:36;10.40;99.90
75091;DHT22;63674;48.048;8.306;2024-03-17T15:17:34;9.80;99.90
75091;DHT22;63674;48.048;8.306;2024-03-17T15:22:35;11.70;99.90
75091;DHT22;63674;48.048;8.306;2024-03-17T15:25:04;10.90;99.90
75091;DHT22;63674;48.048;8.306;2024-03-17T15:27:35;9.90;99.90
75091;DHT22;63674;48.048;8.306;2024-03-17T15:30:03;10.80;99.90
75091;DHT22;63674;48.048;8.306;2024-03-17T15:34:59;10.00;99.90
75091;DHT22;63674;48.048;8.306;2024-03-17T15:37:26;10.90;99.90
75091;DHT22;63674;48.048;8.306;2024-03-17T15:39:55;10.50;99.90
75091;DHT22;63674;48.048;8.306;2024-03-17T15:42:23;10.30;99.90
75091;DHT22;63674;48.048;8.306;2024-03-17T15:44:50;10.50;99.90
75091;DHT22;63674;48.048;8.306;2024-03-17T15:49:46;10.60;99.90
75091;DHT22;63674;48.048;8.306;2024-03-17T15:57:10;10.20;99.90
75091;DHT22;63674;48.048;8.306;2024-03-17T16:02:07;10.50;99.90
75091;DHT22;63674;48.048;8.306;2024-03-17T16:04:38;10.60;99.90
75091;DHT22;63674;48.048;8.306;2024-03-17T16:12:03;10.90;99.90
75091;DHT22;63674;48.048;8.306;2024-03-17T16:14:34;10.90;99.90
75091;DHT22;63674;48.048;8.306;2024-03-17T16:17:04;9.40;99.90
75091;DHT22;63674;48.048;8.306;2024-03-17T16:22:02;10.60;99.90
75091;DHT22;63674;48.048;8.306;2024-03-17T16:24:32;9.60;99.90
75091;DHT22;63674;48.048;8.306;2024-03-17T16:27:02;10.80;99.90
75091;DHT22;63674;48.048;8.306;2024-03-17T16:29:32;10.70;99.90
75091;DHT22;63674;48.048;8.306;2024-03-17T16:34:27;10.50;99.90
75091;DHT22;63674;48.048;8.306;2024-03-17T16:36:55;10.40;99.90
75091;DHT22;63674;48.048;8.306;2024-03-17T16:39:24;9.10;99.90
75091;DHT22;63674;48.048;8.306;2024-03-17T16:44:24;10.40;99.90
75091;DHT22;63674;48.048;8.306;2024-03-17T16:47:26;10.30;99.90
75091;DHT22;63674;48.048;8.306;2024-03-17T16:49:55;10.40;99.90
75091;DHT22;63674;48.048;8.306;2024-03-17T16:52:24;10.40;99.90
75091;DHT22;63674;48.048;8.306;2024-03-17T16:57:21;9.50;99.90
75091;DHT22;63674;48.048;8.306;2024-03-17T16:59:50;9.90;99.90
75091;DHT22;63674;48.048;8.306;2024-03-17T17:02:19;9.70;99.90
75091;DHT22;63674;48.048;8.306;2024-03-17T17:04:48;10.00;99.90
75091;DHT22;63674;48.048;8.306;2024-03-17T17:07:15;9.60;99.90
75091;DHT22;63674;48.048;8.306;2024-03-17T17:09:43;8.80;99.90
75091;DHT22;63674;48.048;8.306;2024-03-17T17:12:13;9.70;99.90
75091;DHT22;63674;48.048;8.306;2024-03-17T17:14:40;9.60;99.90
75091;DHT22;63674;48.048;8.306;2024-03-17T17:17:09;10.00;99.90
75091;DHT22;63674;48.048;8.306;2024-03-17T17:19:38;9.30;99.90
75091;DHT22;63674;48.048;8.306;2024-03-17T17:22:07;8.50;99.90
75091;DHT22;63674;48.048;8.306;2024-03-17T17:27:05;10.00;99.90
75091;DHT22;63674;48.048;8.306;2024-03-17T17:29:35;8.60;99.90
75091;DHT22;63674;48.048;8.306;2024-03-17T17:32:04;9.30;99.90
75091;DHT22;63674;48.048;8.306;2024-03-17T17:34:33;9.50;99.90
75091;DHT22;63674;48.048;8.306;2024-03-17T17:37:03;9.80;99.90
75091;DHT22;63674;48.048;8.306;2024-03-17T17:39:32;9.00;99.90
75091;DHT22;63674;48.048;8.306;2024-03-17T17:44:31;9.20;99.90
75091;DHT22;63674;48.048;8.306;2024-03-17T17:46:58;9.10;99.90
75091;DHT22;63674;48.048;8.306;2024-03-17T17:49:27;9.80;99.90
75091;DHT22;63674;48.048;8.306;2024-03-17T17:54:25;8.40;99.90
75091;DHT22;63674;48.048;8.306;2024-03-17T17:56:53;7.80;99.90
75091;DHT22;63674;48.048;8.306;2024-03-17T17:59:20;8.50;99.90
75091;DHT22;63674;48.048;8.306;2024-03-17T18:01:48;9.30;99.90
75091;DHT22;63674;48.048;8.306;2024-03-17T18:04:16;9.60;99.90
75091;DHT22;63674;48.048;8.306;2024-03-17T18:11:48;9.20;99.90
75091;DHT22;63674;48.048;8.306;2024-03-17T18:16:48;8.10;99.90
75091;DHT22;63674;48.048;8.306;2024-03-17T18:24:13;8.50;99.90
75091;DHT22;63674;48.048;8.306;2024-03-17T18:26:41;8.60;99.90
75091;DHT22;63674;48.048;8.306;2024-03-17T18:29:10;8.60;99.90
75091;DHT22;63674;48.048;8.306;2024-03-17T18:31:38;9.50;99.90
75091;DHT22;63674;48.048;8.306;2024-03-17T18:34:06;9.40;99.90
75091;DHT22;63674;48.048;8.306;2024-03-17T18:41:29;8.70;99.90